createdAt,value
2022-09-10T00:01:02.940Z,14.97
2022-09-10T00:03:30.535Z,14.94
2022-09-10T00:05:58.613Z,14.92
2022-09-10T00:08:26.410Z,14.92
2022-09-10T00:10:54.582Z,14.93
2022-09-10T00:13:24.297Z,14.90
2022-09-10T00:15:54.752Z,14.89
2022-09-10T00:18:24.088Z,14.87
2022-09-10T00:20:53.753Z,14.90
2022-09-10T00:23:25.851Z,14.89
2022-09-10T00:25:54.547Z,14.97
2022-09-10T00:28:25.335Z,14.99
2022-09-10T00:30:55.268Z,15.00
2022-09-10T00:33:24.101Z,15.04
2022-09-10T00:35:51.854Z,14.96
2022-09-10T00:38:19.562Z,15.01
2022-09-10T00:40:47.598Z,15.10
2022-09-10T00:43:18.697Z,15.06
2022-09-10T00:45:51.401Z,15.12
2022-09-10T00:48:23.506Z,15.09
2022-09-10T00:50:52.248Z,15.13
2022-09-10T00:53:23.450Z,15.14
2022-09-10T00:55:54.540Z,15.17
2022-09-10T00:58:24.506Z,15.15
2022-09-10T01:00:57.368Z,15.15
2022-09-10T01:03:25.898Z,15.14
2022-09-10T01:05:54.903Z,15.12
2022-09-10T01:08:22.546Z,15.13
2022-09-10T01:11:10.094Z,15.12
2022-09-10T01:13:55.082Z,15.15
2022-09-10T01:16:34.726Z,15.11
2022-09-10T01:19:17.898Z,15.14
2022-09-10T01:21:55.103Z,15.13
2022-09-10T01:24:41.608Z,15.11
2022-09-10T01:27:34.189Z,15.11
2022-09-10T01:30:08.927Z,15.04
2022-09-10T01:32:57.607Z,15.00
2022-09-10T01:35:36.669Z,14.99
2022-09-10T01:38:09.325Z,14.94
2022-09-10T01:40:38.413Z,14.96
2022-09-10T01:43:12.651Z,14.94
2022-09-10T01:45:59.010Z,14.93
2022-09-10T01:48:42.828Z,14.90
2022-09-10T01:51:22.109Z,14.87
2022-09-10T01:54:11.132Z,14.74
2022-09-10T01:56:49.440Z,14.60
2022-09-10T01:59:26.080Z,14.44
2022-09-10T02:02:01.288Z,14.43
2022-09-10T02:04:30.845Z,14.43
2022-09-10T02:06:59.669Z,14.31
2022-09-10T02:09:28.406Z,14.28
2022-09-10T02:11:56.747Z,14.23
2022-09-10T02:14:50.822Z,14.16
2022-09-10T02:17:44.824Z,14.18
2022-09-10T02:20:15.290Z,14.20
2022-09-10T02:22:48.789Z,14.24
2022-09-10T02:25:17.218Z,14.25
2022-09-10T02:27:45.463Z,14.38
2022-09-10T02:30:16.076Z,14.48
2022-09-10T02:32:43.788Z,14.50
2022-09-10T02:35:16.006Z,14.49
2022-09-10T02:37:46.589Z,14.49
2022-09-10T02:40:14.684Z,14.46
2022-09-10T02:42:46.687Z,14.45
2022-09-10T02:45:20.606Z,14.46
2022-09-10T02:47:48.898Z,14.43
2022-09-10T02:50:18.603Z,14.44
2022-09-10T02:52:46.651Z,14.46
2022-09-10T02:55:15.135Z,14.44
2022-09-10T02:57:43.942Z,14.47
2022-09-10T03:00:12.701Z,14.42
2022-09-10T03:02:41.790Z,14.45
2022-09-10T03:05:10.996Z,14.45
2022-09-10T03:07:38.642Z,14.47
2022-09-10T03:10:07.051Z,14.50
2022-09-10T03:12:34.649Z,14.55
2022-09-10T03:15:02.846Z,14.60
2022-09-10T03:17:30.504Z,14.63
2022-09-10T03:19:59.976Z,14.66
2022-09-10T03:22:28.401Z,14.67
2022-09-10T03:24:56.414Z,14.67
2022-09-10T03:27:25.326Z,14.71
2022-09-10T03:29:54.750Z,14.76
2022-09-10T03:32:24.351Z,14.77
2022-09-10T03:34:52.251Z,14.69
2022-09-10T03:37:24.074Z,14.72
2022-09-10T03:39:53.066Z,14.77
2022-09-10T03:42:20.991Z,14.76
2022-09-10T03:44:49.140Z,14.78
2022-09-10T03:47:17.918Z,14.73
2022-09-10T03:49:45.662Z,14.64
2022-09-10T03:52:14.732Z,14.67
2022-09-10T03:54:45.913Z,14.68
2022-09-10T03:57:14.304Z,14.64
2022-09-10T03:59:42.202Z,14.67
2022-09-10T04:02:12.695Z,14.72
2022-09-10T04:04:40.344Z,14.72
2022-09-10T04:07:10.835Z,14.78
2022-09-10T04:09:38.440Z,14.83
2022-09-10T04:12:09.884Z,14.86
2022-09-10T04:14:37.727Z,14.83
2022-09-10T04:17:05.883Z,14.84
2022-09-10T04:19:35.342Z,14.81
2022-09-10T04:22:03.704Z,14.84
2022-09-10T04:24:32.482Z,14.85
2022-09-10T04:27:01.761Z,14.86
2022-09-10T04:29:31.401Z,14.85
2022-09-10T04:31:59.839Z,14.86
2022-09-10T04:34:31.559Z,14.88
2022-09-10T04:36:59.696Z,14.92
2022-09-10T04:39:28.150Z,14.89
2022-09-10T04:41:56.086Z,14.86
2022-09-10T04:44:24.710Z,14.85
2022-09-10T04:46:53.994Z,14.89
2022-09-10T04:49:21.641Z,14.88
2022-09-10T04:51:50.041Z,14.90
2022-09-10T04:54:17.852Z,14.91
2022-09-10T04:56:47.624Z,14.89
2022-09-10T04:59:15.422Z,14.89
2022-09-10T05:01:45.726Z,14.95
2022-09-10T05:04:14.930Z,14.98
2022-09-10T05:06:43.418Z,14.95
2022-09-10T05:09:12.443Z,15.02
2022-09-10T05:11:41.291Z,15.02
2022-09-10T05:14:10.138Z,15.07
2022-09-10T05:16:38.921Z,15.14
2022-09-10T05:19:06.976Z,15.14
2022-09-10T05:21:43.907Z,15.15
2022-09-10T05:24:11.575Z,15.21
2022-09-10T05:26:39.941Z,15.19
2022-09-10T05:29:07.646Z,15.23
2022-09-10T05:31:35.787Z,15.22
2022-09-10T05:34:04.334Z,15.12
2022-09-10T05:36:33.469Z,15.17
2022-09-10T05:39:04.252Z,14.90
2022-09-10T05:41:35.583Z,14.68
2022-09-10T05:44:03.475Z,14.68
2022-09-10T05:46:31.454Z,14.79
2022-09-10T05:49:03.703Z,14.45
2022-09-10T05:51:31.434Z,14.57
2022-09-10T05:54:04.998Z,14.62
2022-09-10T05:56:35.039Z,14.59
2022-09-10T05:59:04.039Z,14.83
2022-09-10T06:01:33.302Z,15.02
2022-09-10T06:04:03.156Z,14.85
2022-09-10T06:06:32.340Z,15.07
2022-09-10T06:09:07.811Z,15.14
2022-09-10T06:11:51.626Z,15.03
2022-09-10T06:14:20.778Z,15.06
2022-09-10T06:16:49.359Z,14.99
2022-09-10T06:19:17.142Z,15.10
2022-09-10T06:21:46.131Z,15.23
2022-09-10T06:24:15.900Z,15.31
2022-09-10T06:26:44.935Z,15.32
2022-09-10T06:29:14.667Z,15.34
2022-09-10T06:31:43.108Z,15.38
2022-09-10T06:34:13.699Z,15.48
2022-09-10T06:36:41.928Z,15.53
2022-09-10T06:39:09.720Z,15.59
2022-09-10T06:41:49.767Z,15.64
2022-09-10T06:44:35.902Z,15.68
2022-09-10T06:47:55.832Z,15.68
2022-09-10T06:50:02.605Z,15.74
2022-09-10T06:52:32.994Z,15.79
2022-09-10T06:55:06.007Z,15.85
2022-09-10T06:57:40.778Z,15.91
2022-09-10T07:00:10.686Z,15.90
2022-09-10T07:02:39.796Z,15.92
2022-09-10T07:05:08.704Z,15.87
2022-09-10T07:07:38.799Z,15.89
2022-09-10T07:10:09.231Z,16.02
2022-09-10T07:12:37.497Z,15.93
2022-09-10T07:15:10.074Z,16.09
2022-09-10T07:17:38.194Z,16.17
2022-09-10T07:20:08.290Z,16.21
2022-09-10T07:22:45.123Z,16.28
2022-09-10T07:25:14.836Z,16.30
2022-09-10T07:27:54.779Z,16.07
2022-09-10T07:30:25.283Z,16.46
2022-09-10T07:32:53.410Z,16.64
2022-09-10T07:35:25.744Z,16.77
2022-09-10T07:37:55.052Z,16.26
2022-09-10T07:40:23.995Z,16.58
2022-09-10T07:42:52.439Z,16.54
2022-09-10T07:45:21.327Z,16.50
2022-09-10T07:47:50.384Z,16.25
2022-09-10T07:50:19.085Z,16.35
2022-09-10T07:52:49.835Z,16.32
2022-09-10T07:55:18.248Z,16.52
2022-09-10T07:57:47.143Z,16.48
2022-09-10T08:00:16.831Z,16.23
2022-09-10T08:02:50.541Z,16.23
2022-09-10T08:05:21.632Z,16.17
2022-09-10T08:07:53.795Z,16.41
2022-09-10T08:10:22.792Z,16.50
2022-09-10T08:12:52.833Z,16.39
2022-09-10T08:15:22.186Z,16.39
2022-09-10T08:17:51.237Z,17.02
2022-09-10T08:20:22.423Z,17.35
2022-09-10T08:22:50.235Z,17.80
2022-09-10T08:25:20.072Z,17.85
2022-09-10T08:27:48.221Z,17.63
2022-09-10T08:30:16.743Z,17.53
2022-09-10T08:32:44.399Z,17.60
2022-09-10T08:35:16.038Z,17.87
2022-09-10T08:37:43.679Z,17.52
2022-09-10T08:40:13.317Z,17.62
2022-09-10T08:42:46.329Z,17.00
2022-09-10T08:45:19.042Z,17.35
2022-09-10T08:47:53.317Z,17.26
2022-09-10T08:50:33.643Z,17.46
2022-09-10T08:53:18.023Z,17.43
2022-09-10T08:55:49.074Z,17.52
2022-09-10T08:58:23.556Z,17.58
2022-09-10T09:00:56.168Z,17.51
2022-09-10T09:03:30.861Z,17.27
2022-09-10T09:06:03.106Z,17.62
2022-09-10T09:08:48.388Z,17.14
2022-09-10T09:11:26.844Z,17.04
2022-09-10T09:14:13.167Z,17.14
2022-09-10T09:17:06.196Z,17.20
2022-09-10T09:19:42.160Z,17.19
2022-09-10T09:22:18.698Z,16.75
2022-09-10T09:24:57.386Z,17.11
2022-09-10T09:27:28.177Z,17.27
2022-09-10T09:30:01.233Z,17.46
2022-09-10T09:32:34.069Z,17.08
2022-09-10T09:35:10.633Z,17.17
2022-09-10T09:37:43.205Z,17.41
2022-09-10T09:40:17.650Z,17.27
2022-09-10T09:42:52.464Z,17.01
2022-09-10T09:45:29.106Z,17.53
2022-09-10T09:47:57.062Z,17.41
2022-09-10T09:50:24.790Z,17.62
2022-09-10T09:52:56.429Z,17.39
2022-09-10T09:55:32.904Z,16.97
2022-09-10T09:58:33.483Z,17.33
2022-09-10T10:01:23.838Z,17.37
2022-09-10T10:03:54.445Z,17.53
2022-09-10T10:06:25.063Z,17.75
2022-09-10T10:09:00.423Z,17.81
2022-09-10T10:11:52.825Z,17.72
2022-09-10T10:14:36.586Z,17.70
2022-09-10T10:17:32.464Z,18.11
2022-09-10T10:20:04.702Z,18.14
2022-09-10T10:22:32.722Z,17.82
2022-09-10T10:25:03.947Z,17.75
2022-09-10T10:27:35.350Z,17.59
2022-09-10T10:30:07.450Z,17.52
2022-09-10T10:32:45.395Z,18.89
2022-09-10T10:35:44.531Z,18.38
2022-09-10T10:38:26.643Z,18.92
2022-09-10T10:41:11.754Z,18.93
2022-09-10T10:43:50.411Z,19.09
2022-09-10T10:46:21.627Z,19.36
2022-09-10T10:49:05.244Z,19.19
2022-09-10T10:51:42.645Z,18.93
2022-09-10T10:54:27.128Z,18.16
2022-09-10T10:57:04.298Z,17.93
2022-09-10T10:59:47.572Z,18.02
2022-09-10T11:02:18.912Z,17.82
2022-09-10T11:04:51.806Z,18.33
2022-09-10T11:07:27.327Z,18.15
2022-09-10T11:10:01.440Z,18.33
2022-09-10T11:12:34.816Z,18.21
2022-09-10T11:15:19.431Z,18.20
2022-09-10T11:17:54.520Z,18.23
2022-09-10T11:20:29.999Z,17.63
2022-09-10T11:23:07.671Z,18.02
2022-09-10T11:25:40.545Z,18.22
2022-09-10T11:28:13.831Z,18.11
2022-09-10T11:30:46.436Z,18.30
2022-09-10T11:33:21.359Z,18.44
2022-09-10T11:35:56.211Z,18.84
2022-09-10T11:38:29.398Z,18.55
2022-09-10T11:41:09.048Z,18.53
2022-09-10T11:43:44.076Z,18.73
2022-09-10T11:46:15.767Z,18.28
2022-09-10T11:48:49.259Z,18.07
2022-09-10T11:51:23.272Z,17.69
2022-09-10T11:53:51.408Z,17.56
2022-09-10T11:56:50.794Z,17.42
2022-09-10T11:59:37.484Z,17.76
2022-09-10T12:02:27.300Z,17.69
2022-09-10T12:05:01.705Z,17.87
2022-09-10T12:07:41.379Z,18.07
2022-09-10T12:10:19.790Z,18.06
2022-09-10T12:12:50.363Z,17.89
2022-09-10T12:15:22.943Z,18.34
2022-09-10T12:17:56.700Z,18.01
2022-09-10T12:20:29.570Z,17.78
2022-09-10T12:22:58.355Z,17.54
2022-09-10T12:25:33.913Z,17.61
2022-09-10T12:28:05.695Z,17.42
2022-09-10T12:31:03.132Z,17.64
2022-09-10T12:33:59.685Z,17.58
2022-09-10T12:37:17.048Z,18.12
2022-09-10T12:39:45.575Z,18.48
2022-09-10T12:42:30.483Z,18.79
2022-09-10T12:44:59.293Z,18.69
2022-09-10T12:47:52.399Z,18.48
2022-09-10T12:50:28.667Z,18.67
2022-09-10T12:53:16.347Z,18.30
2022-09-10T12:55:54.539Z,18.53
2022-09-10T12:58:32.172Z,18.74
2022-09-10T13:01:10.341Z,18.87
2022-09-10T13:03:54.752Z,18.31
2022-09-10T13:06:35.803Z,18.65
2022-09-10T13:09:17.162Z,18.66
2022-09-10T13:11:49.510Z,18.80
2022-09-10T13:14:21.012Z,18.61
2022-09-10T13:16:48.707Z,19.12
2022-09-10T13:19:54.845Z,18.91
2022-09-10T13:23:02.779Z,18.74
2022-09-10T13:25:40.207Z,18.50
2022-09-10T13:28:46.380Z,18.67
2022-09-10T13:31:25.921Z,18.82
2022-09-10T13:34:29.592Z,18.96
2022-09-10T13:37:15.764Z,18.76
2022-09-10T13:40:01.628Z,18.71
2022-09-10T13:42:47.239Z,18.71
2022-09-10T13:45:38.608Z,18.94
2022-09-10T13:48:15.331Z,19.33
2022-09-10T13:50:51.943Z,19.35
2022-09-10T13:53:26.671Z,19.10
2022-09-10T13:55:58.980Z,19.23
2022-09-10T13:58:31.614Z,19.29
2022-09-10T14:01:03.327Z,19.28
2022-09-10T14:03:33.387Z,18.86
2022-09-10T14:06:04.130Z,18.84
2022-09-10T14:08:38.566Z,18.82
2022-09-10T14:11:09.046Z,18.35
2022-09-10T14:13:41.031Z,17.86
2022-09-10T14:16:12.449Z,16.99
2022-09-10T14:18:45.987Z,16.57
2022-09-10T14:21:15.170Z,15.98
2022-09-10T14:23:49.413Z,16.35
2022-09-10T14:26:23.467Z,16.35
2022-09-10T14:28:55.126Z,16.78
2022-09-10T14:31:35.426Z,16.84
2022-09-10T14:34:26.189Z,16.83
2022-09-10T14:36:53.868Z,17.16
2022-09-10T14:39:24.209Z,16.83
2022-09-10T14:42:10.212Z,17.09
2022-09-10T14:44:41.942Z,16.95
2022-09-10T14:47:15.878Z,16.96
2022-09-10T14:49:47.363Z,16.92
2022-09-10T14:52:15.624Z,16.64
2022-09-10T14:54:46.698Z,16.75
2022-09-10T14:57:17.017Z,17.00
2022-09-10T14:59:46.203Z,17.49
2022-09-10T15:02:18.070Z,17.40
2022-09-10T15:04:45.986Z,17.40
2022-09-10T15:07:13.796Z,17.91
2022-09-10T15:09:41.807Z,17.92
2022-09-10T15:12:16.244Z,17.73
2022-09-10T15:14:43.967Z,18.03
2022-09-10T15:17:14.676Z,18.04
2022-09-10T15:19:42.547Z,18.26
2022-09-10T15:22:20.610Z,18.65
2022-09-10T15:25:08.466Z,18.85
2022-09-10T15:27:38.388Z,19.11
2022-09-10T15:30:07.492Z,19.03
2022-09-10T15:32:35.116Z,19.29
2022-09-10T15:35:03.293Z,19.47
2022-09-10T15:37:30.869Z,19.71
2022-09-10T15:39:58.612Z,19.77
2022-09-10T15:42:26.331Z,20.06
2022-09-10T15:44:55.291Z,20.58
2022-09-10T15:47:23.328Z,20.98
2022-09-10T15:49:52.769Z,21.27
2022-09-10T15:52:20.375Z,20.95
2022-09-10T15:54:48.055Z,20.64
2022-09-10T15:57:15.673Z,19.88
2022-09-10T15:59:43.262Z,19.59
2022-09-10T16:02:13.045Z,19.50
2022-09-10T16:04:43.027Z,19.68
2022-09-10T16:07:10.943Z,19.65
2022-09-10T16:09:38.890Z,19.41
2022-09-10T16:12:06.812Z,19.62
2022-09-10T16:14:34.729Z,19.75
2022-09-10T16:17:02.416Z,19.85
2022-09-10T16:19:31.730Z,19.76
2022-09-10T16:21:59.310Z,19.63
2022-09-10T16:24:27.236Z,19.70
2022-09-10T16:26:54.837Z,19.68
2022-09-10T16:29:22.875Z,19.56
2022-09-10T16:31:50.618Z,19.24
2022-09-10T16:34:20.088Z,19.15
2022-09-10T16:36:50.903Z,19.08
2022-09-10T16:39:20.195Z,19.04
2022-09-10T16:41:49.167Z,19.20
2022-09-10T16:44:18.467Z,19.21
2022-09-10T16:46:47.518Z,19.27
2022-09-10T16:49:18.253Z,19.24
2022-09-10T16:51:47.313Z,19.16
2022-09-10T16:54:19.453Z,19.18
2022-09-10T16:56:48.925Z,19.09
2022-09-10T16:59:18.112Z,19.06
2022-09-10T17:01:47.738Z,19.01
2022-09-10T17:04:21.311Z,18.77
2022-09-10T17:06:51.792Z,18.61
2022-09-10T17:09:21.250Z,18.62
2022-09-10T17:11:49.194Z,18.41
2022-09-10T17:14:16.813Z,18.25
2022-09-10T17:16:44.814Z,18.22
2022-09-10T17:19:15.411Z,18.27
2022-09-10T17:21:44.812Z,18.11
2022-09-10T17:24:14.254Z,18.11
2022-09-10T17:26:43.539Z,18.08
2022-09-10T17:29:14.594Z,17.89
2022-09-10T17:31:42.884Z,17.84
2022-09-10T17:34:13.143Z,17.47
2022-09-10T17:36:41.756Z,17.63
2022-09-10T17:39:09.703Z,17.64
2022-09-10T17:41:37.511Z,17.46
2022-09-10T17:44:07.135Z,17.51
2022-09-10T17:46:36.139Z,17.27
2022-09-10T17:49:04.793Z,17.27
2022-09-10T17:51:34.605Z,17.02
2022-09-10T17:54:03.519Z,16.98
2022-09-10T17:56:31.827Z,16.81
2022-09-10T17:59:02.270Z,16.72
2022-09-10T18:01:33.040Z,16.88
2022-09-10T18:04:01.471Z,16.85
2022-09-10T18:06:29.821Z,16.63
2022-09-10T18:09:00.780Z,16.38
2022-09-10T18:11:30.942Z,16.28
2022-09-10T18:14:00.767Z,16.45
2022-09-10T18:16:30.014Z,16.48
2022-09-10T18:19:01.015Z,16.45
2022-09-10T18:21:31.250Z,16.14
2022-09-10T18:24:01.687Z,16.28
2022-09-10T18:26:31.544Z,16.23
2022-09-10T18:29:01.924Z,16.07
2022-09-10T18:31:31.886Z,15.85
2022-09-10T18:34:02.441Z,15.97
2022-09-10T18:36:31.434Z,16.08
2022-09-10T18:38:59.466Z,16.18
2022-09-10T18:41:29.359Z,16.28
2022-09-10T18:43:59.657Z,16.19
2022-09-10T18:46:29.013Z,16.30
2022-09-10T18:48:57.735Z,16.24
2022-09-10T18:51:28.625Z,16.24
2022-09-10T18:53:58.490Z,16.36
2022-09-10T18:56:29.773Z,16.39
2022-09-10T18:59:00.809Z,16.38
2022-09-10T19:01:30.346Z,16.33
2022-09-10T19:03:59.010Z,16.29
2022-09-10T19:06:29.806Z,16.15
2022-09-10T19:08:59.560Z,16.36
2022-09-10T19:11:32.911Z,16.37
2022-09-10T19:14:03.339Z,16.42
2022-09-10T19:16:32.965Z,16.40
2022-09-10T19:19:03.136Z,16.07
2022-09-10T19:21:33.206Z,15.92
2022-09-10T19:24:01.936Z,15.81
2022-09-10T19:26:31.487Z,15.79
2022-09-10T19:29:01.348Z,15.87
2022-09-10T19:31:31.056Z,16.03
2022-09-10T19:34:01.942Z,16.08
2022-09-10T19:36:34.017Z,16.01
2022-09-10T19:39:04.744Z,16.00
2022-09-10T19:41:33.954Z,16.06
2022-09-10T19:44:03.296Z,16.05
2022-09-10T19:46:31.007Z,15.86
2022-09-10T19:49:00.683Z,15.77
2022-09-10T19:51:30.153Z,15.63
2022-09-10T19:54:00.671Z,15.70
2022-09-10T19:56:31.053Z,15.59
2022-09-10T19:59:00.149Z,15.63
2022-09-10T20:01:31.151Z,15.54
2022-09-10T20:04:01.080Z,15.59
2022-09-10T20:06:30.369Z,15.54
2022-09-10T20:08:59.373Z,15.59
2022-09-10T20:11:29.866Z,15.59
2022-09-10T20:13:59.836Z,15.80
2022-09-10T20:16:28.300Z,15.97
2022-09-10T20:18:55.974Z,15.89
2022-09-10T20:21:25.513Z,15.93
2022-09-10T20:23:55.622Z,16.01
2022-09-10T20:26:26.591Z,16.01
2022-09-10T20:28:56.904Z,15.81
2022-09-10T20:31:26.492Z,15.62
2022-09-10T20:33:56.349Z,15.74
2022-09-10T20:36:25.531Z,15.68
2022-09-10T20:38:54.139Z,15.53
2022-09-10T20:41:23.491Z,15.46
2022-09-10T20:43:53.984Z,15.51
2022-09-10T20:46:23.365Z,15.44
2022-09-10T20:48:52.519Z,15.56
2022-09-10T20:51:21.078Z,15.31
2022-09-10T20:53:49.272Z,15.55
2022-09-10T20:56:20.124Z,15.70
2022-09-10T20:58:48.477Z,15.77
2022-09-10T21:01:19.134Z,15.63
2022-09-10T21:03:48.598Z,15.64
2022-09-10T21:06:17.713Z,15.68
2022-09-10T21:08:47.074Z,15.53
2022-09-10T21:11:16.332Z,15.58
2022-09-10T21:13:45.930Z,15.60
2022-09-10T21:16:15.988Z,15.49
2022-09-10T21:18:52.234Z,15.64
2022-09-10T21:21:25.783Z,15.60
2022-09-10T21:23:55.577Z,15.49
2022-09-10T21:26:25.222Z,15.41
2022-09-10T21:28:54.152Z,15.46
2022-09-10T21:31:22.002Z,15.53
2022-09-10T21:33:51.214Z,15.76
2022-09-10T21:36:21.278Z,15.63
2022-09-10T21:38:49.660Z,15.70
2022-09-10T21:41:19.890Z,15.87
2022-09-10T21:43:48.411Z,15.79
2022-09-10T21:46:16.790Z,15.79
2022-09-10T21:48:45.022Z,15.84
2022-09-10T21:51:15.943Z,15.75
2022-09-10T21:53:45.085Z,15.62
2022-09-10T21:56:14.832Z,15.32
2022-09-10T21:58:43.617Z,15.66
2022-09-10T22:01:13.167Z,15.65
2022-09-10T22:03:41.252Z,15.32
2022-09-10T22:06:11.238Z,15.42
2022-09-10T22:08:42.027Z,15.15
2022-09-10T22:11:14.536Z,15.14
2022-09-10T22:13:43.019Z,15.17
2022-09-10T22:16:13.121Z,15.14
2022-09-10T22:18:41.391Z,15.35
2022-09-10T22:21:10.140Z,15.44
2022-09-10T22:23:40.314Z,15.25
2022-09-10T22:26:10.026Z,15.25
2022-09-10T22:28:38.503Z,15.16
2022-09-10T22:31:11.039Z,15.15
2022-09-10T22:33:39.337Z,15.08
2022-09-10T22:36:14.445Z,15.10
2022-09-10T22:38:44.406Z,15.06
2022-09-10T22:41:14.357Z,14.82
2022-09-10T22:43:42.754Z,15.13
2022-09-10T22:46:11.555Z,14.79
2022-09-10T22:48:42.435Z,14.73
2022-09-10T22:51:12.420Z,14.76
2022-09-10T22:53:41.809Z,14.75
2022-09-10T22:56:11.711Z,14.65
2022-09-10T22:58:40.550Z,14.87
2022-09-10T23:01:10.168Z,14.75
2022-09-10T23:03:38.584Z,14.62
2022-09-10T23:06:08.966Z,14.77
2022-09-10T23:08:38.054Z,14.70
2022-09-10T23:11:12.178Z,14.49
2022-09-10T23:13:39.976Z,14.67
2022-09-10T23:16:12.864Z,14.58
2022-09-10T23:18:41.323Z,14.53
2022-09-10T23:21:09.886Z,14.55
2022-09-10T23:23:38.269Z,14.68
2022-09-10T23:26:08.262Z,14.70
2022-09-10T23:28:38.447Z,14.67
2022-09-10T23:31:12.793Z,14.69
2022-09-10T23:33:42.643Z,14.66
2022-09-10T23:36:13.178Z,14.62
2022-09-10T23:38:41.724Z,14.59
2022-09-10T23:41:09.620Z,14.53
2022-09-10T23:43:40.384Z,14.56
2022-09-10T23:46:08.863Z,14.51
2022-09-10T23:48:37.643Z,14.58
2022-09-10T23:51:07.241Z,14.73
2022-09-10T23:53:35.316Z,14.92
2022-09-10T23:56:03.706Z,14.66
2022-09-10T23:58:32.224Z,14.59
